sensor_id;sensor_type;location;lat;lon;timestamp;P1;durP1;ratioP1;P2;durP2;ratioP2
74269;SDS011;62754;48.252;11.654;2023-03-02T00:01:06;25.00;;;13.18;;
74269;SDS011;62754;48.252;11.654;2023-03-02T00:03:35;23.38;;;12.38;;
74269;SDS011;62754;48.252;11.654;2023-03-02T00:06:03;24.10;;;13.15;;
74269;SDS011;62754;48.252;11.654;2023-03-02T00:08:29;26.70;;;13.68;;
74269;SDS011;62754;48.252;11.654;2023-03-02T00:10:55;26.48;;;12.57;;
74269;SDS011;62754;48.252;11.654;2023-03-02T00:13:22;26.63;;;14.00;;
74269;SDS011;62754;48.252;11.654;2023-03-02T00:15:48;23.38;;;12.15;;
74269;SDS011;62754;48.252;11.654;2023-03-02T00:18:14;27.35;;;13.13;;
74269;SDS011;62754;48.252;11.654;2023-03-02T00:20:40;25.33;;;13.07;;
74269;SDS011;62754;48.252;11.654;2023-03-02T00:23:06;27.15;;;13.13;;
74269;SDS011;62754;48.252;11.654;2023-03-02T00:25:31;26.83;;;13.57;;
74269;SDS011;62754;48.252;11.654;2023-03-02T00:27:57;25.45;;;13.32;;
74269;SDS011;62754;48.252;11.654;2023-03-02T00:30:23;24.67;;;13.00;;
74269;SDS011;62754;48.252;11.654;2023-03-02T00:32:49;28.88;;;15.27;;
74269;SDS011;62754;48.252;11.654;2023-03-02T00:35:14;26.17;;;14.50;;
74269;SDS011;62754;48.252;11.654;2023-03-02T00:37:40;24.20;;;12.80;;
74269;SDS011;62754;48.252;11.654;2023-03-02T00:40:06;23.17;;;13.23;;
74269;SDS011;62754;48.252;11.654;2023-03-02T00:42:33;26.25;;;13.02;;
74269;SDS011;62754;48.252;11.654;2023-03-02T00:44:58;24.83;;;13.10;;
74269;SDS011;62754;48.252;11.654;2023-03-02T00:47:24;26.30;;;13.80;;
74269;SDS011;62754;48.252;11.654;2023-03-02T00:49:50;26.80;;;13.55;;
74269;SDS011;62754;48.252;11.654;2023-03-02T00:52:16;25.42;;;12.77;;
74269;SDS011;62754;48.252;11.654;2023-03-02T00:54:41;26.77;;;13.70;;
74269;SDS011;62754;48.252;11.654;2023-03-02T00:57:07;24.92;;;12.63;;
74269;SDS011;62754;48.252;11.654;2023-03-02T00:59:35;25.30;;;13.40;;
74269;SDS011;62754;48.252;11.654;2023-03-02T01:02:02;26.55;;;13.60;;
74269;SDS011;62754;48.252;11.654;2023-03-02T01:04:29;23.75;;;12.43;;
74269;SDS011;62754;48.252;11.654;2023-03-02T01:06:59;23.83;;;12.60;;
74269;SDS011;62754;48.252;11.654;2023-03-02T01:09:27;25.17;;;13.10;;
74269;SDS011;62754;48.252;11.654;2023-03-02T01:11:53;25.63;;;12.85;;
74269;SDS011;62754;48.252;11.654;2023-03-02T01:14:19;25.90;;;12.90;;
74269;SDS011;62754;48.252;11.654;2023-03-02T01:16:46;27.60;;;13.10;;
74269;SDS011;62754;48.252;11.654;2023-03-02T01:19:15;25.17;;;13.18;;
74269;SDS011;62754;48.252;11.654;2023-03-02T01:21:41;27.92;;;13.30;;
74269;SDS011;62754;48.252;11.654;2023-03-02T01:24:07;30.30;;;13.10;;
74269;SDS011;62754;48.252;11.654;2023-03-02T01:26:33;27.20;;;13.02;;
74269;SDS011;62754;48.252;11.654;2023-03-02T01:29:00;24.10;;;13.15;;
74269;SDS011;62754;48.252;11.654;2023-03-02T01:31:26;23.40;;;12.95;;
74269;SDS011;62754;48.252;11.654;2023-03-02T01:33:52;26.17;;;12.73;;
74269;SDS011;62754;48.252;11.654;2023-03-02T01:36:18;29.13;;;12.75;;
74269;SDS011;62754;48.252;11.654;2023-03-02T01:38:45;25.23;;;12.60;;
74269;SDS011;62754;48.252;11.654;2023-03-02T01:41:11;25.73;;;12.73;;
74269;SDS011;62754;48.252;11.654;2023-03-02T01:43:37;23.55;;;12.75;;
74269;SDS011;62754;48.252;11.654;2023-03-02T01:48:52;24.20;;;12.27;;
74269;SDS011;62754;48.252;11.654;2023-03-02T01:51:22;23.77;;;12.27;;
74269;SDS011;62754;48.252;11.654;2023-03-02T01:53:50;23.70;;;12.60;;
74269;SDS011;62754;48.252;11.654;2023-03-02T01:56:19;22.35;;;11.60;;
74269;SDS011;62754;48.252;11.654;2023-03-02T01:58:50;23.55;;;12.27;;
74269;SDS011;62754;48.252;11.654;2023-03-02T02:01:20;20.92;;;11.57;;
74269;SDS011;62754;48.252;11.654;2023-03-02T02:03:49;25.13;;;13.23;;
74269;SDS011;62754;48.252;11.654;2023-03-02T02:06:20;23.95;;;12.95;;
74269;SDS011;62754;48.252;11.654;2023-03-02T02:08:48;21.67;;;12.30;;
74269;SDS011;62754;48.252;11.654;2023-03-02T02:11:17;23.83;;;13.07;;
74269;SDS011;62754;48.252;11.654;2023-03-02T02:13:43;23.52;;;12.18;;
74269;SDS011;62754;48.252;11.654;2023-03-02T02:16:09;27.75;;;13.00;;
74269;SDS011;62754;48.252;11.654;2023-03-02T02:18:37;23.23;;;11.95;;
74269;SDS011;62754;48.252;11.654;2023-03-02T02:21:04;24.15;;;12.52;;
74269;SDS011;62754;48.252;11.654;2023-03-02T02:26:43;22.52;;;11.85;;
74269;SDS011;62754;48.252;11.654;2023-03-02T02:29:16;24.95;;;12.27;;
74269;SDS011;62754;48.252;11.654;2023-03-02T02:31:46;25.80;;;12.18;;
74269;SDS011;62754;48.252;11.654;2023-03-02T02:39:43;30.65;;;12.57;;
74269;SDS011;62754;48.252;11.654;2023-03-02T02:42:13;26.52;;;12.35;;
74269;SDS011;62754;48.252;11.654;2023-03-02T02:44:42;24.27;;;12.18;;
74269;SDS011;62754;48.252;11.654;2023-03-02T02:47:15;21.92;;;11.75;;
74269;SDS011;62754;48.252;11.654;2023-03-02T02:49:43;22.23;;;11.48;;
74269;SDS011;62754;48.252;11.654;2023-03-02T02:52:13;22.85;;;12.02;;
74269;SDS011;62754;48.252;11.654;2023-03-02T02:54:40;23.42;;;12.35;;
74269;SDS011;62754;48.252;11.654;2023-03-02T02:57:09;21.10;;;11.85;;
74269;SDS011;62754;48.252;11.654;2023-03-02T02:59:44;23.20;;;12.48;;
74269;SDS011;62754;48.252;11.654;2023-03-02T03:02:23;22.05;;;12.05;;
74269;SDS011;62754;48.252;11.654;2023-03-02T03:04:51;23.17;;;12.45;;
74269;SDS011;62754;48.252;11.654;2023-03-02T03:07:22;21.90;;;11.80;;
74269;SDS011;62754;48.252;11.654;2023-03-02T03:12:43;24.50;;;11.70;;
74269;SDS011;62754;48.252;11.654;2023-03-02T03:15:10;24.05;;;12.45;;
74269;SDS011;62754;48.252;11.654;2023-03-02T03:17:38;23.38;;;11.43;;
74269;SDS011;62754;48.252;11.654;2023-03-02T03:20:04;22.55;;;12.05;;
74269;SDS011;62754;48.252;11.654;2023-03-02T03:22:31;24.27;;;12.32;;
74269;SDS011;62754;48.252;11.654;2023-03-02T03:24:59;23.10;;;11.73;;
74269;SDS011;62754;48.252;11.654;2023-03-02T03:27:25;21.17;;;12.40;;
74269;SDS011;62754;48.252;11.654;2023-03-02T03:29:51;24.13;;;12.48;;
74269;SDS011;62754;48.252;11.654;2023-03-02T03:32:17;20.33;;;10.98;;
74269;SDS011;62754;48.252;11.654;2023-03-02T03:34:43;22.15;;;12.73;;
74269;SDS011;62754;48.252;11.654;2023-03-02T03:37:11;22.33;;;12.38;;
74269;SDS011;62754;48.252;11.654;2023-03-02T03:39:39;24.85;;;13.25;;
74269;SDS011;62754;48.252;11.654;2023-03-02T03:42:05;21.67;;;11.07;;
74269;SDS011;62754;48.252;11.654;2023-03-02T03:44:31;24.60;;;11.82;;
74269;SDS011;62754;48.252;11.654;2023-03-02T03:46:58;22.95;;;12.27;;
74269;SDS011;62754;48.252;11.654;2023-03-02T03:49:24;25.92;;;12.93;;
74269;SDS011;62754;48.252;11.654;2023-03-02T03:51:50;25.65;;;12.85;;
74269;SDS011;62754;48.252;11.654;2023-03-02T03:54:16;26.42;;;12.32;;
74269;SDS011;62754;48.252;11.654;2023-03-02T03:56:43;25.40;;;11.95;;
74269;SDS011;62754;48.252;11.654;2023-03-02T03:59:12;23.65;;;11.57;;
74269;SDS011;62754;48.252;11.654;2023-03-02T04:01:41;25.17;;;13.20;;
74269;SDS011;62754;48.252;11.654;2023-03-02T04:04:19;24.90;;;12.15;;
74269;SDS011;62754;48.252;11.654;2023-03-02T04:06:48;21.67;;;11.00;;
74269;SDS011;62754;48.252;11.654;2023-03-02T04:09:14;24.02;;;12.75;;
74269;SDS011;62754;48.252;11.654;2023-03-02T04:11:41;26.10;;;12.93;;
74269;SDS011;62754;48.252;11.654;2023-03-02T04:14:08;27.02;;;14.00;;
74269;SDS011;62754;48.252;11.654;2023-03-02T04:16:34;25.45;;;12.85;;
74269;SDS011;62754;48.252;11.654;2023-03-02T04:19:01;26.05;;;13.23;;
74269;SDS011;62754;48.252;11.654;2023-03-02T04:21:28;27.17;;;13.32;;
74269;SDS011;62754;48.252;11.654;2023-03-02T04:23:54;25.42;;;13.38;;
74269;SDS011;62754;48.252;11.654;2023-03-02T04:26:20;26.48;;;14.07;;
74269;SDS011;62754;48.252;11.654;2023-03-02T04:28:46;27.27;;;13.48;;
74269;SDS011;62754;48.252;11.654;2023-03-02T04:31:12;30.80;;;13.75;;
74269;SDS011;62754;48.252;11.654;2023-03-02T04:33:37;27.63;;;14.90;;
74269;SDS011;62754;48.252;11.654;2023-03-02T04:36:03;25.15;;;13.30;;
74269;SDS011;62754;48.252;11.654;2023-03-02T04:38:29;32.30;;;13.55;;
74269;SDS011;62754;48.252;11.654;2023-03-02T04:40:56;26.42;;;14.25;;
74269;SDS011;62754;48.252;11.654;2023-03-02T04:43:22;28.60;;;14.38;;
74269;SDS011;62754;48.252;11.654;2023-03-02T04:45:48;29.73;;;14.13;;
74269;SDS011;62754;48.252;11.654;2023-03-02T04:48:14;27.30;;;14.05;;
74269;SDS011;62754;48.252;11.654;2023-03-02T04:50:40;27.40;;;13.75;;
74269;SDS011;62754;48.252;11.654;2023-03-02T04:53:06;27.15;;;13.35;;
74269;SDS011;62754;48.252;11.654;2023-03-02T04:55:31;29.45;;;14.45;;
74269;SDS011;62754;48.252;11.654;2023-03-02T04:57:58;28.23;;;14.23;;
74269;SDS011;62754;48.252;11.654;2023-03-02T05:00:23;27.70;;;14.45;;
74269;SDS011;62754;48.252;11.654;2023-03-02T05:02:49;28.52;;;14.63;;
74269;SDS011;62754;48.252;11.654;2023-03-02T05:05:17;28.58;;;14.82;;
74269;SDS011;62754;48.252;11.654;2023-03-02T05:07:45;26.05;;;14.10;;
74269;SDS011;62754;48.252;11.654;2023-03-02T05:10:11;29.98;;;14.98;;
74269;SDS011;62754;48.252;11.654;2023-03-02T05:12:38;30.73;;;15.77;;
74269;SDS011;62754;48.252;11.654;2023-03-02T05:15:04;33.20;;;15.95;;
74269;SDS011;62754;48.252;11.654;2023-03-02T05:17:30;33.55;;;16.00;;
74269;SDS011;62754;48.252;11.654;2023-03-02T05:19:55;27.80;;;14.73;;
74269;SDS011;62754;48.252;11.654;2023-03-02T05:22:21;31.45;;;16.27;;
74269;SDS011;62754;48.252;11.654;2023-03-02T05:24:47;31.38;;;15.05;;
74269;SDS011;62754;48.252;11.654;2023-03-02T05:27:13;29.65;;;14.25;;
74269;SDS011;62754;48.252;11.654;2023-03-02T05:29:38;26.55;;;13.75;;
74269;SDS011;62754;48.252;11.654;2023-03-02T05:32:04;31.27;;;14.23;;
74269;SDS011;62754;48.252;11.654;2023-03-02T05:34:30;29.17;;;14.60;;
74269;SDS011;62754;48.252;11.654;2023-03-02T05:36:56;26.50;;;13.90;;
74269;SDS011;62754;48.252;11.654;2023-03-02T05:39:22;26.48;;;13.60;;
74269;SDS011;62754;48.252;11.654;2023-03-02T05:41:47;27.45;;;13.43;;
74269;SDS011;62754;48.252;11.654;2023-03-02T05:44:13;28.25;;;13.52;;
74269;SDS011;62754;48.252;11.654;2023-03-02T05:46:39;27.05;;;14.05;;
74269;SDS011;62754;48.252;11.654;2023-03-02T05:49:05;29.10;;;14.32;;
74269;SDS011;62754;48.252;11.654;2023-03-02T05:51:30;28.80;;;14.40;;
74269;SDS011;62754;48.252;11.654;2023-03-02T05:53:56;27.27;;;13.85;;
74269;SDS011;62754;48.252;11.654;2023-03-02T05:56:22;29.63;;;14.18;;
74269;SDS011;62754;48.252;11.654;2023-03-02T05:58:48;23.20;;;12.93;;
74269;SDS011;62754;48.252;11.654;2023-03-02T06:01:14;29.42;;;14.32;;
74269;SDS011;62754;48.252;11.654;2023-03-02T06:03:39;23.92;;;13.23;;
74269;SDS011;62754;48.252;11.654;2023-03-02T06:06:05;27.70;;;12.77;;
74269;SDS011;62754;48.252;11.654;2023-03-02T06:08:31;24.98;;;12.80;;
74269;SDS011;62754;48.252;11.654;2023-03-02T06:10:57;25.23;;;13.45;;
74269;SDS011;62754;48.252;11.654;2023-03-02T06:13:22;29.23;;;13.10;;
74269;SDS011;62754;48.252;11.654;2023-03-02T06:15:48;25.58;;;13.98;;
74269;SDS011;62754;48.252;11.654;2023-03-02T06:18:14;26.58;;;12.68;;
74269;SDS011;62754;48.252;11.654;2023-03-02T06:20:40;26.88;;;13.63;;
74269;SDS011;62754;48.252;11.654;2023-03-02T06:23:05;28.27;;;13.65;;
74269;SDS011;62754;48.252;11.654;2023-03-02T06:25:31;26.15;;;13.95;;
74269;SDS011;62754;48.252;11.654;2023-03-02T06:27:57;33.47;;;14.30;;
74269;SDS011;62754;48.252;11.654;2023-03-02T06:30:23;26.95;;;13.60;;
74269;SDS011;62754;48.252;11.654;2023-03-02T06:32:50;22.88;;;13.23;;
74269;SDS011;62754;48.252;11.654;2023-03-02T06:35:16;26.25;;;12.73;;
74269;SDS011;62754;48.252;11.654;2023-03-02T06:37:42;29.58;;;13.05;;
74269;SDS011;62754;48.252;11.654;2023-03-02T06:40:08;28.98;;;13.35;;
74269;SDS011;62754;48.252;11.654;2023-03-02T06:42:35;26.05;;;12.60;;
74269;SDS011;62754;48.252;11.654;2023-03-02T06:45:02;26.95;;;13.30;;
74269;SDS011;62754;48.252;11.654;2023-03-02T06:47:29;26.50;;;12.82;;
74269;SDS011;62754;48.252;11.654;2023-03-02T06:49:55;25.67;;;14.00;;
74269;SDS011;62754;48.252;11.654;2023-03-02T06:52:20;24.45;;;13.63;;
74269;SDS011;62754;48.252;11.654;2023-03-02T06:54:46;27.40;;;13.48;;
74269;SDS011;62754;48.252;11.654;2023-03-02T06:57:12;26.23;;;12.85;;
74269;SDS011;62754;48.252;11.654;2023-03-02T06:59:38;24.17;;;12.45;;
74269;SDS011;62754;48.252;11.654;2023-03-02T07:02:03;26.27;;;14.48;;
74269;SDS011;62754;48.252;11.654;2023-03-02T07:04:29;37.72;;;21.45;;
74269;SDS011;62754;48.252;11.654;2023-03-02T07:06:55;38.20;;;19.25;;
74269;SDS011;62754;48.252;11.654;2023-03-02T07:09:21;30.58;;;15.60;;
74269;SDS011;62754;48.252;11.654;2023-03-02T07:11:47;26.95;;;12.98;;
74269;SDS011;62754;48.252;11.654;2023-03-02T07:14:13;24.63;;;13.27;;
74269;SDS011;62754;48.252;11.654;2023-03-02T07:16:39;27.00;;;13.38;;
74269;SDS011;62754;48.252;11.654;2023-03-02T07:19:05;22.40;;;12.20;;
74269;SDS011;62754;48.252;11.654;2023-03-02T07:21:30;28.00;;;13.07;;
74269;SDS011;62754;48.252;11.654;2023-03-02T07:23:56;22.95;;;11.30;;
74269;SDS011;62754;48.252;11.654;2023-03-02T07:26:22;22.70;;;12.43;;
74269;SDS011;62754;48.252;11.654;2023-03-02T07:28:48;19.50;;;11.60;;
74269;SDS011;62754;48.252;11.654;2023-03-02T07:31:13;24.23;;;12.32;;
74269;SDS011;62754;48.252;11.654;2023-03-02T07:33:39;23.27;;;12.38;;
74269;SDS011;62754;48.252;11.654;2023-03-02T07:36:06;20.38;;;11.48;;
74269;SDS011;62754;48.252;11.654;2023-03-02T07:38:32;23.30;;;11.93;;
74269;SDS011;62754;48.252;11.654;2023-03-02T07:40:58;22.88;;;11.77;;
74269;SDS011;62754;48.252;11.654;2023-03-02T07:43:24;22.05;;;11.45;;
74269;SDS011;62754;48.252;11.654;2023-03-02T07:45:50;21.13;;;11.02;;
74269;SDS011;62754;48.252;11.654;2023-03-02T07:48:17;23.08;;;11.80;;
74269;SDS011;62754;48.252;11.654;2023-03-02T07:50:43;22.13;;;11.05;;
74269;SDS011;62754;48.252;11.654;2023-03-02T07:53:09;23.33;;;11.40;;
74269;SDS011;62754;48.252;11.654;2023-03-02T07:55:38;20.63;;;11.32;;
74269;SDS011;62754;48.252;11.654;2023-03-02T07:58:05;27.48;;;16.58;;
74269;SDS011;62754;48.252;11.654;2023-03-02T08:00:30;22.52;;;13.35;;
74269;SDS011;62754;48.252;11.654;2023-03-02T08:02:57;22.85;;;11.20;;
74269;SDS011;62754;48.252;11.654;2023-03-02T08:05:22;21.90;;;12.15;;
74269;SDS011;62754;48.252;11.654;2023-03-02T08:07:48;20.02;;;10.73;;
74269;SDS011;62754;48.252;11.654;2023-03-02T08:10:14;20.95;;;13.80;;
74269;SDS011;62754;48.252;11.654;2023-03-02T08:12:40;22.65;;;12.07;;
74269;SDS011;62754;48.252;11.654;2023-03-02T08:15:06;21.65;;;10.40;;
74269;SDS011;62754;48.252;11.654;2023-03-02T08:17:32;21.23;;;11.07;;
74269;SDS011;62754;48.252;11.654;2023-03-02T08:19:58;22.05;;;12.13;;
74269;SDS011;62754;48.252;11.654;2023-03-02T08:22:23;21.92;;;11.52;;
74269;SDS011;62754;48.252;11.654;2023-03-02T08:24:49;21.08;;;10.38;;
74269;SDS011;62754;48.252;11.654;2023-03-02T08:27:15;22.20;;;11.75;;
74269;SDS011;62754;48.252;11.654;2023-03-02T08:29:41;26.48;;;12.30;;
74269;SDS011;62754;48.252;11.654;2023-03-02T08:32:06;22.27;;;10.95;;
74269;SDS011;62754;48.252;11.654;2023-03-02T08:34:32;20.60;;;10.57;;
74269;SDS011;62754;48.252;11.654;2023-03-02T08:36:58;23.05;;;11.75;;
74269;SDS011;62754;48.252;11.654;2023-03-02T08:39:24;20.17;;;11.98;;
74269;SDS011;62754;48.252;11.654;2023-03-02T08:41:50;21.25;;;11.27;;
74269;SDS011;62754;48.252;11.654;2023-03-02T08:44:16;19.67;;;10.35;;
74269;SDS011;62754;48.252;11.654;2023-03-02T08:46:43;21.50;;;13.82;;
74269;SDS011;62754;48.252;11.654;2023-03-02T08:49:08;18.85;;;11.63;;
74269;SDS011;62754;48.252;11.654;2023-03-02T08:51:34;17.15;;;10.25;;
74269;SDS011;62754;48.252;11.654;2023-03-02T08:54:00;17.80;;;10.70;;
74269;SDS011;62754;48.252;11.654;2023-03-02T08:56:27;19.65;;;10.75;;
74269;SDS011;62754;48.252;11.654;2023-03-02T08:58:59;18.50;;;10.85;;
74269;SDS011;62754;48.252;11.654;2023-03-02T09:01:27;19.67;;;11.07;;
74269;SDS011;62754;48.252;11.654;2023-03-02T09:03:55;20.83;;;11.18;;
74269;SDS011;62754;48.252;11.654;2023-03-02T09:06:22;18.40;;;11.30;;
74269;SDS011;62754;48.252;11.654;2023-03-02T09:08:48;22.98;;;12.48;;
74269;SDS011;62754;48.252;11.654;2023-03-02T09:11:14;17.50;;;10.48;;
74269;SDS011;62754;48.252;11.654;2023-03-02T09:13:40;18.27;;;10.70;;
74269;SDS011;62754;48.252;11.654;2023-03-02T09:16:06;16.35;;;9.70;;
74269;SDS011;62754;48.252;11.654;2023-03-02T09:18:32;18.80;;;10.75;;
74269;SDS011;62754;48.252;11.654;2023-03-02T09:20:59;18.52;;;11.20;;
74269;SDS011;62754;48.252;11.654;2023-03-02T09:23:25;18.33;;;10.48;;
74269;SDS011;62754;48.252;11.654;2023-03-02T09:28:17;17.63;;;10.27;;
74269;SDS011;62754;48.252;11.654;2023-03-02T09:30:47;16.73;;;10.93;;
74269;SDS011;62754;48.252;11.654;2023-03-02T09:33:14;18.30;;;11.07;;
74269;SDS011;62754;48.252;11.654;2023-03-02T09:35:40;17.38;;;9.98;;
74269;SDS011;62754;48.252;11.654;2023-03-02T09:38:06;22.48;;;11.23;;
74269;SDS011;62754;48.252;11.654;2023-03-02T09:40:32;20.13;;;11.65;;
74269;SDS011;62754;48.252;11.654;2023-03-02T09:48:39;17.17;;;9.90;;
74269;SDS011;62754;48.252;11.654;2023-03-02T09:51:32;16.67;;;10.20;;
74269;SDS011;62754;48.252;11.654;2023-03-02T09:56:36;16.73;;;10.55;;
74269;SDS011;62754;48.252;11.654;2023-03-02T09:59:26;18.73;;;10.93;;
74269;SDS011;62754;48.252;11.654;2023-03-02T10:02:05;19.90;;;10.73;;
74269;SDS011;62754;48.252;11.654;2023-03-02T10:04:45;16.45;;;10.52;;
74269;SDS011;62754;48.252;11.654;2023-03-02T10:07:15;19.35;;;11.63;;
74269;SDS011;62754;48.252;11.654;2023-03-02T10:09:46;18.60;;;11.02;;
74269;SDS011;62754;48.252;11.654;2023-03-02T10:14:52;18.55;;;10.60;;
74269;SDS011;62754;48.252;11.654;2023-03-02T10:17:29;17.15;;;10.52;;
74269;SDS011;62754;48.252;11.654;2023-03-02T10:20:17;19.67;;;10.70;;
74269;SDS011;62754;48.252;11.654;2023-03-02T10:22:51;17.50;;;9.75;;
74269;SDS011;62754;48.252;11.654;2023-03-02T10:28:12;17.67;;;10.10;;
74269;SDS011;62754;48.252;11.654;2023-03-02T10:30:43;16.83;;;11.02;;
74269;SDS011;62754;48.252;11.654;2023-03-02T10:33:14;15.90;;;10.27;;
74269;SDS011;62754;48.252;11.654;2023-03-02T10:35:45;14.90;;;10.15;;
74269;SDS011;62754;48.252;11.654;2023-03-02T10:38:19;17.25;;;9.40;;
74269;SDS011;62754;48.252;11.654;2023-03-02T10:46:07;16.77;;;9.38;;
74269;SDS011;62754;48.252;11.654;2023-03-02T10:51:19;19.02;;;10.02;;
74269;SDS011;62754;48.252;11.654;2023-03-02T10:53:46;16.70;;;9.88;;
74269;SDS011;62754;48.252;11.654;2023-03-02T10:56:19;17.23;;;9.43;;
74269;SDS011;62754;48.252;11.654;2023-03-02T10:58:46;16.65;;;9.25;;
74269;SDS011;62754;48.252;11.654;2023-03-02T11:01:16;15.50;;;9.75;;
74269;SDS011;62754;48.252;11.654;2023-03-02T11:03:56;14.73;;;9.85;;
74269;SDS011;62754;48.252;11.654;2023-03-02T11:06:23;22.17;;;18.15;;
74269;SDS011;62754;48.252;11.654;2023-03-02T11:11:28;16.67;;;10.00;;
74269;SDS011;62754;48.252;11.654;2023-03-02T11:13:54;17.83;;;9.88;;
74269;SDS011;62754;48.252;11.654;2023-03-02T11:16:21;15.55;;;9.90;;
74269;SDS011;62754;48.252;11.654;2023-03-02T11:21:35;16.98;;;8.88;;
74269;SDS011;62754;48.252;11.654;2023-03-02T11:24:14;15.77;;;9.70;;
74269;SDS011;62754;48.252;11.654;2023-03-02T11:26:46;13.65;;;9.52;;
74269;SDS011;62754;48.252;11.654;2023-03-02T11:32:19;17.02;;;11.05;;
74269;SDS011;62754;48.252;11.654;2023-03-02T11:34:56;15.07;;;9.45;;
74269;SDS011;62754;48.252;11.654;2023-03-02T11:37:35;14.23;;;9.10;;
74269;SDS011;62754;48.252;11.654;2023-03-02T11:42:42;16.17;;;10.15;;
74269;SDS011;62754;48.252;11.654;2023-03-02T11:47:39;12.43;;;9.38;;
74269;SDS011;62754;48.252;11.654;2023-03-02T11:50:26;13.32;;;9.18;;
74269;SDS011;62754;48.252;11.654;2023-03-02T11:52:59;15.27;;;9.15;;
74269;SDS011;62754;48.252;11.654;2023-03-02T11:55:28;14.32;;;9.80;;
74269;SDS011;62754;48.252;11.654;2023-03-02T11:58:00;13.13;;;9.38;;
74269;SDS011;62754;48.252;11.654;2023-03-02T12:00:38;13.73;;;9.40;;
74269;SDS011;62754;48.252;11.654;2023-03-02T12:05:35;13.15;;;9.27;;
74269;SDS011;62754;48.252;11.654;2023-03-02T12:10:53;14.13;;;9.25;;
74269;SDS011;62754;48.252;11.654;2023-03-02T12:13:38;13.68;;;8.65;;
74269;SDS011;62754;48.252;11.654;2023-03-02T12:16:21;15.32;;;9.63;;
74269;SDS011;62754;48.252;11.654;2023-03-02T12:19:10;14.27;;;8.95;;
74269;SDS011;62754;48.252;11.654;2023-03-02T12:21:40;14.48;;;9.32;;
74269;SDS011;62754;48.252;11.654;2023-03-02T12:24:20;11.98;;;8.70;;
74269;SDS011;62754;48.252;11.654;2023-03-02T12:26:58;12.98;;;9.00;;
74269;SDS011;62754;48.252;11.654;2023-03-02T12:32:32;16.17;;;8.43;;
74269;SDS011;62754;48.252;11.654;2023-03-02T12:48:46;13.10;;;8.90;;
74269;SDS011;62754;48.252;11.654;2023-03-02T12:56:36;13.90;;;9.27;;
74269;SDS011;62754;48.252;11.654;2023-03-02T12:59:02;13.05;;;7.75;;
74269;SDS011;62754;48.252;11.654;2023-03-02T13:01:29;10.60;;;8.23;;
74269;SDS011;62754;48.252;11.654;2023-03-02T13:03:56;12.35;;;8.98;;
74269;SDS011;62754;48.252;11.654;2023-03-02T13:06:23;9.88;;;7.80;;
74269;SDS011;62754;48.252;11.654;2023-03-02T13:08:53;11.75;;;8.95;;
74269;SDS011;62754;48.252;11.654;2023-03-02T13:11:24;12.60;;;8.60;;
74269;SDS011;62754;48.252;11.654;2023-03-02T13:13:56;11.57;;;8.35;;
74269;SDS011;62754;48.252;11.654;2023-03-02T13:16:24;11.07;;;7.85;;
74269;SDS011;62754;48.252;11.654;2023-03-02T13:18:54;11.63;;;8.00;;
74269;SDS011;62754;48.252;11.654;2023-03-02T13:21:37;11.90;;;8.65;;
74269;SDS011;62754;48.252;11.654;2023-03-02T13:27:49;14.57;;;9.05;;
74269;SDS011;62754;48.252;11.654;2023-03-02T13:32:59;11.50;;;8.18;;
74269;SDS011;62754;48.252;11.654;2023-03-02T13:35:28;12.05;;;8.75;;
74269;SDS011;62754;48.252;11.654;2023-03-02T13:38:17;9.75;;;7.93;;
74269;SDS011;62754;48.252;11.654;2023-03-02T13:40:44;9.07;;;8.13;;
74269;SDS011;62754;48.252;11.654;2023-03-02T13:43:21;11.27;;;7.90;;
74269;SDS011;62754;48.252;11.654;2023-03-02T13:45:55;11.57;;;8.23;;
74269;SDS011;62754;48.252;11.654;2023-03-02T13:48:22;11.13;;;7.82;;
74269;SDS011;62754;48.252;11.654;2023-03-02T13:53:52;12.68;;;8.88;;
74269;SDS011;62754;48.252;11.654;2023-03-02T13:56:28;11.55;;;8.50;;
74269;SDS011;62754;48.252;11.654;2023-03-02T13:58:57;12.15;;;8.43;;
74269;SDS011;62754;48.252;11.654;2023-03-02T14:03:48;13.82;;;8.27;;
74269;SDS011;62754;48.252;11.654;2023-03-02T14:08:40;12.77;;;7.95;;
74269;SDS011;62754;48.252;11.654;2023-03-02T14:14:04;10.40;;;7.15;;
74269;SDS011;62754;48.252;11.654;2023-03-02T14:16:23;10.43;;;7.53;;
74269;SDS011;62754;48.252;11.654;2023-03-02T14:18:49;10.82;;;7.28;;
74269;SDS011;62754;48.252;11.654;2023-03-02T14:21:17;16.83;;;8.45;;
74269;SDS011;62754;48.252;11.654;2023-03-02T14:23:44;10.15;;;7.43;;
74269;SDS011;62754;48.252;11.654;2023-03-02T14:26:18;11.40;;;7.85;;
74269;SDS011;62754;48.252;11.654;2023-03-02T14:28:45;13.55;;;7.78;;
74269;SDS011;62754;48.252;11.654;2023-03-02T14:31:11;13.35;;;8.75;;
74269;SDS011;62754;48.252;11.654;2023-03-02T14:33:36;14.52;;;8.77;;
74269;SDS011;62754;48.252;11.654;2023-03-02T14:36:02;11.63;;;7.60;;
74269;SDS011;62754;48.252;11.654;2023-03-02T14:38:29;13.70;;;8.75;;
74269;SDS011;62754;48.252;11.654;2023-03-02T14:43:21;10.52;;;6.90;;
74269;SDS011;62754;48.252;11.654;2023-03-02T14:45:47;12.85;;;7.55;;
74269;SDS011;62754;48.252;11.654;2023-03-02T14:50:40;15.15;;;7.90;;
74269;SDS011;62754;48.252;11.654;2023-03-02T14:53:10;11.50;;;6.75;;
74269;SDS011;62754;48.252;11.654;2023-03-02T14:55:41;10.20;;;5.95;;
74269;SDS011;62754;48.252;11.654;2023-03-02T14:58:17;9.43;;;6.07;;
74269;SDS011;62754;48.252;11.654;2023-03-02T15:00:44;11.13;;;6.70;;
74269;SDS011;62754;48.252;11.654;2023-03-02T15:03:15;9.20;;;6.15;;
74269;SDS011;62754;48.252;11.654;2023-03-02T15:05:41;12.50;;;6.70;;
74269;SDS011;62754;48.252;11.654;2023-03-02T15:08:11;10.70;;;6.45;;
74269;SDS011;62754;48.252;11.654;2023-03-02T15:10:38;11.80;;;6.75;;
74269;SDS011;62754;48.252;11.654;2023-03-02T15:13:04;11.00;;;6.93;;
74269;SDS011;62754;48.252;11.654;2023-03-02T15:15:29;11.27;;;7.00;;
74269;SDS011;62754;48.252;11.654;2023-03-02T15:20:21;9.88;;;6.75;;
74269;SDS011;62754;48.252;11.654;2023-03-02T15:25:12;11.70;;;6.80;;
74269;SDS011;62754;48.252;11.654;2023-03-02T15:30:04;12.98;;;6.55;;
74269;SDS011;62754;48.252;11.654;2023-03-02T15:32:30;9.35;;;5.90;;
74269;SDS011;62754;48.252;11.654;2023-03-02T15:34:55;11.27;;;6.43;;
74269;SDS011;62754;48.252;11.654;2023-03-02T15:37:21;10.73;;;6.13;;
74269;SDS011;62754;48.252;11.654;2023-03-02T15:39:51;9.07;;;5.53;;
74269;SDS011;62754;48.252;11.654;2023-03-02T15:42:17;10.77;;;6.20;;
74269;SDS011;62754;48.252;11.654;2023-03-02T15:44:43;11.60;;;6.00;;
74269;SDS011;62754;48.252;11.654;2023-03-02T15:47:09;12.38;;;6.55;;
74269;SDS011;62754;48.252;11.654;2023-03-02T15:49:35;15.05;;;7.10;;
74269;SDS011;62754;48.252;11.654;2023-03-02T15:52:01;12.38;;;6.43;;
74269;SDS011;62754;48.252;11.654;2023-03-02T15:54:27;9.70;;;5.13;;
74269;SDS011;62754;48.252;11.654;2023-03-02T15:56:53;10.02;;;5.40;;
74269;SDS011;62754;48.252;11.654;2023-03-02T15:59:20;13.73;;;6.10;;
74269;SDS011;62754;48.252;11.654;2023-03-02T16:01:47;10.20;;;5.22;;
74269;SDS011;62754;48.252;11.654;2023-03-02T16:04:13;12.65;;;6.38;;
74269;SDS011;62754;48.252;11.654;2023-03-02T16:06:39;11.00;;;6.30;;